createdAt,value
2018-03-17T00:00:31.461Z,14.70
2018-03-17T00:03:00.522Z,15.73
2018-03-17T00:05:28.720Z,14.43
2018-03-17T00:07:56.998Z,14.27
2018-03-17T00:10:25.211Z,13.47
2018-03-17T00:12:53.441Z,14.40
2018-03-17T00:15:21.681Z,15.23
2018-03-17T00:17:49.976Z,15.40
2018-03-17T00:20:18.240Z,15.60
2018-03-17T00:22:46.454Z,15.47
2018-03-17T00:25:15.498Z,15.37
2018-03-17T00:27:43.755Z,13.97
2018-03-17T00:30:12.750Z,17.47
2018-03-17T00:32:41.061Z,13.30
2018-03-17T00:35:09.325Z,14.77
2018-03-17T00:37:37.536Z,16.67
2018-03-17T00:40:05.836Z,14.17
2018-03-17T00:42:34.858Z,14.20
2018-03-17T00:45:03.081Z,13.13
2018-03-17T00:47:31.296Z,17.60
2018-03-17T00:49:59.949Z,14.47
2018-03-17T00:52:28.173Z,16.97
2018-03-17T00:54:56.443Z,13.83
2018-03-17T00:57:24.680Z,14.63
2018-03-17T00:59:52.901Z,15.27
2018-03-17T01:02:21.150Z,15.10
2018-03-17T01:04:50.140Z,15.47
2018-03-17T01:07:19.184Z,15.13
2018-03-17T01:09:47.424Z,15.33
2018-03-17T01:12:15.676Z,16.20
2018-03-17T01:14:43.881Z,14.70
2018-03-17T01:17:12.151Z,12.90
2018-03-17T01:19:41.118Z,13.70
2018-03-17T01:22:10.489Z,15.97
2018-03-17T01:24:38.706Z,16.90
2018-03-17T01:27:07.729Z,15.07
2018-03-17T01:29:36.004Z,11.57
2018-03-17T01:32:04.297Z,14.60
2018-03-17T01:34:32.526Z,16.97
2018-03-17T01:37:01.504Z,15.63
2018-03-17T01:39:29.739Z,14.40
2018-03-17T01:41:57.949Z,13.60
2018-03-17T01:44:26.173Z,13.10
2018-03-17T01:46:54.444Z,14.30
2018-03-17T01:49:22.705Z,12.90
2018-03-17T01:51:50.930Z,0.70
2018-03-17T01:54:34.277Z,0.70
2018-03-17T01:57:02.498Z,0.70
2018-03-17T01:59:30.715Z,0.70
2018-03-17T02:01:58.935Z,0.70
2018-03-17T02:04:27.927Z,0.70
2018-03-17T02:06:56.910Z,0.70
2018-03-17T02:09:25.884Z,0.70
2018-03-17T02:11:54.110Z,0.70
2018-03-17T02:14:22.315Z,0.70
2018-03-17T02:16:50.587Z,0.70
2018-03-17T02:19:18.825Z,0.70
2018-03-17T02:21:48.194Z,0.70
2018-03-17T02:24:16.427Z,0.70
2018-03-17T02:26:44.656Z,0.70
2018-03-17T02:29:12.925Z,0.70
2018-03-17T02:31:41.157Z,0.70
2018-03-17T02:34:09.432Z,0.70
2018-03-17T02:36:37.670Z,0.70
2018-03-17T02:39:05.945Z,0.70
2018-03-17T02:41:34.153Z,0.70
2018-03-17T02:44:02.397Z,0.70
2018-03-17T02:46:31.429Z,0.70
2018-03-17T02:48:59.668Z,0.70
2018-03-17T02:51:27.917Z,0.70
2018-03-17T02:53:56.195Z,0.70
2018-03-17T02:56:24.384Z,0.70
2018-03-17T02:58:52.703Z,0.70
2018-03-17T03:01:21.724Z,0.70
2018-03-17T03:03:49.937Z,0.70
2018-03-17T03:06:18.172Z,0.70
2018-03-17T03:08:46.434Z,0.70
2018-03-17T03:11:14.655Z,0.70
2018-03-17T03:13:42.869Z,0.70
2018-03-17T03:16:11.100Z,0.70
2018-03-17T03:18:39.365Z,0.70
2018-03-17T03:21:07.675Z,0.70
2018-03-17T03:23:35.938Z,0.70
2018-03-17T03:26:04.122Z,0.70
2018-03-17T03:28:32.399Z,0.70
2018-03-17T03:31:00.663Z,0.70
2018-03-17T03:33:28.914Z,0.70
2018-03-17T03:35:57.159Z,0.70
2018-03-17T03:38:25.375Z,0.70
2018-03-17T03:40:53.636Z,0.70
2018-03-17T03:43:21.853Z,0.70
2018-03-17T03:45:50.824Z,0.70
2018-03-17T03:48:19.055Z,0.70
2018-03-17T03:50:47.269Z,0.70
2018-03-17T03:53:15.506Z,0.70
2018-03-17T03:55:43.774Z,0.80
2018-03-17T03:58:12.010Z,0.70
2018-03-17T04:00:40.239Z,0.70
2018-03-17T04:03:08.454Z,0.70
2018-03-17T04:05:36.679Z,0.80
2018-03-17T04:08:04.939Z,0.70
2018-03-17T04:10:33.964Z,0.70
2018-03-17T04:13:02.290Z,0.70
2018-03-17T04:15:30.525Z,0.70
2018-03-17T04:17:58.732Z,0.70
2018-03-17T04:20:27.264Z,0.70
2018-03-17T04:22:55.534Z,0.70
2018-03-17T04:25:24.537Z,0.80
2018-03-17T04:27:52.769Z,0.70
2018-03-17T04:30:21.012Z,0.70
2018-03-17T04:32:49.277Z,0.70
2018-03-17T04:35:17.533Z,0.70
2018-03-17T04:37:45.745Z,0.77
2018-03-17T04:40:14.007Z,0.80
2018-03-17T04:42:42.241Z,0.70
2018-03-17T04:45:11.284Z,0.70
2018-03-17T04:47:39.884Z,0.70
2018-03-17T04:50:08.125Z,0.70
2018-03-17T04:52:36.375Z,0.70
2018-03-17T04:55:05.374Z,0.70
2018-03-17T04:57:34.332Z,0.80
2018-03-17T05:00:02.617Z,0.70
2018-03-17T05:02:30.804Z,0.70
2018-03-17T05:04:59.821Z,0.70
2018-03-17T05:07:28.080Z,0.70
2018-03-17T05:09:57.128Z,0.70
2018-03-17T05:12:25.326Z,0.70
2018-03-17T05:14:53.558Z,0.80
2018-03-17T05:17:21.805Z,0.70
2018-03-17T05:19:50.843Z,0.80
2018-03-17T05:22:19.110Z,0.60
2018-03-17T05:24:47.350Z,0.70
2018-03-17T05:27:16.415Z,0.70
2018-03-17T05:29:44.635Z,0.77
2018-03-17T05:32:12.863Z,0.70
2018-03-17T05:34:41.111Z,0.70
2018-03-17T05:37:09.369Z,0.70
2018-03-17T05:39:37.614Z,0.80
2018-03-17T05:42:05.834Z,0.70
2018-03-17T05:44:34.052Z,0.70
2018-03-17T05:47:02.253Z,0.70
2018-03-17T05:49:31.238Z,0.70
2018-03-17T05:52:00.258Z,0.70
2018-03-17T05:54:28.556Z,0.70
2018-03-17T05:56:56.738Z,0.70
2018-03-17T05:59:25.015Z,0.70
2018-03-17T06:01:53.288Z,0.70
2018-03-17T06:04:21.587Z,0.70
2018-03-17T06:06:49.780Z,0.70
2018-03-17T06:09:18.044Z,0.70
2018-03-17T06:11:46.286Z,0.70
2018-03-17T06:14:14.538Z,0.80
2018-03-17T06:16:42.791Z,0.70
2018-03-17T06:19:11.010Z,0.70
2018-03-17T06:21:39.259Z,0.70
2018-03-17T06:24:08.239Z,0.70
2018-03-17T06:26:37.302Z,0.70
2018-03-17T06:29:05.521Z,0.70
2018-03-17T06:31:33.798Z,0.70
2018-03-17T06:34:02.944Z,0.70
2018-03-17T06:36:31.205Z,0.70
2018-03-17T06:38:59.415Z,0.70
2018-03-17T06:41:27.719Z,0.60
2018-03-17T06:43:56.809Z,0.70
2018-03-17T06:46:25.111Z,0.70
2018-03-17T06:48:53.408Z,0.70
2018-03-17T06:51:21.652Z,0.80
2018-03-17T06:53:49.962Z,0.70
2018-03-17T06:56:18.260Z,0.70
2018-03-17T06:58:46.723Z,0.70
2018-03-17T07:01:14.965Z,0.70
2018-03-17T07:03:43.997Z,0.70
2018-03-17T07:06:12.262Z,0.70
2018-03-17T07:08:40.507Z,0.70
2018-03-17T07:11:09.536Z,0.70
2018-03-17T07:13:37.807Z,0.70
2018-03-17T07:16:06.095Z,0.70
2018-03-17T07:18:34.386Z,0.70
2018-03-17T07:21:02.632Z,0.80
2018-03-17T07:23:30.889Z,0.70
2018-03-17T07:25:59.904Z,0.70
2018-03-17T07:28:28.181Z,0.70
2018-03-17T07:30:56.477Z,0.70
2018-03-17T07:33:24.764Z,0.70
2018-03-17T07:35:53.054Z,0.70
2018-03-17T07:38:21.337Z,0.70
2018-03-17T07:40:49.599Z,0.70
2018-03-17T07:43:17.914Z,0.70
2018-03-17T07:45:46.955Z,0.80
2018-03-17T07:48:15.198Z,0.70
2018-03-17T07:50:43.458Z,0.70
2018-03-17T07:53:11.731Z,0.70
2018-03-17T07:55:40.799Z,0.73
2018-03-17T07:58:09.067Z,0.77
2018-03-17T08:00:37.361Z,0.80
2018-03-17T08:03:05.622Z,0.80
2018-03-17T08:05:33.923Z,0.70
2018-03-17T08:08:02.235Z,0.70
2018-03-17T08:10:30.558Z,0.70
2018-03-17T08:12:58.840Z,0.70
2018-03-17T08:15:27.089Z,0.70
2018-03-17T08:17:55.343Z,0.70
2018-03-17T08:20:23.609Z,0.70
2018-03-17T08:22:51.884Z,0.70
2018-03-17T08:25:20.891Z,0.70
2018-03-17T08:27:49.181Z,0.80
2018-03-17T08:30:17.447Z,0.70
2018-03-17T08:32:45.711Z,0.70
2018-03-17T08:35:13.984Z,0.70
2018-03-17T08:37:43.045Z,0.70
2018-03-17T08:40:11.343Z,0.70
2018-03-17T08:42:40.416Z,0.73
2018-03-17T08:45:08.692Z,0.70
2018-03-17T08:47:36.930Z,0.80
2018-03-17T08:50:06.001Z,0.70
2018-03-17T08:52:34.308Z,0.70
2018-03-17T08:55:02.607Z,0.70
2018-03-17T08:57:30.860Z,0.70
2018-03-17T08:59:59.130Z,0.80
2018-03-17T09:02:27.432Z,0.70
2018-03-17T09:04:55.746Z,0.70
2018-03-17T09:07:24.815Z,0.70
2018-03-17T09:09:53.085Z,0.70
2018-03-17T09:12:21.341Z,0.70
2018-03-17T09:14:49.613Z,0.70
2018-03-17T09:17:17.958Z,0.70
2018-03-17T09:19:47.052Z,0.70
2018-03-17T09:22:21.213Z,0.70
2018-03-17T09:24:50.293Z,0.70
2018-03-17T09:27:18.702Z,0.70
2018-03-17T09:29:47.057Z,0.70
2018-03-17T09:32:15.383Z,0.73
2018-03-17T09:34:43.714Z,0.77
2018-03-17T09:37:12.737Z,0.70
2018-03-17T09:39:41.853Z,0.70
2018-03-17T09:42:10.136Z,0.70
2018-03-17T09:44:38.415Z,0.70
2018-03-17T09:47:07.502Z,0.70
2018-03-17T09:49:35.857Z,0.70
2018-03-17T09:52:04.172Z,0.70
2018-03-17T09:54:33.205Z,0.70
2018-03-17T09:57:01.518Z,0.70
2018-03-17T09:59:29.869Z,0.70
2018-03-17T10:01:58.226Z,0.70
2018-03-17T10:04:26.492Z,0.60
2018-03-17T10:06:54.804Z,0.70
2018-03-17T10:09:23.232Z,0.70
2018-03-17T10:11:52.285Z,0.70
2018-03-17T10:14:20.602Z,0.70
2018-03-17T10:16:49.690Z,0.70
2018-03-17T10:19:18.015Z,0.70
2018-03-17T10:21:46.296Z,0.70
2018-03-17T10:24:14.608Z,0.70
2018-03-17T10:26:42.926Z,0.70
2018-03-17T10:29:11.193Z,0.70
2018-03-17T10:31:40.256Z,0.70
2018-03-17T10:34:08.546Z,0.70
2018-03-17T10:36:37.690Z,0.70
2018-03-17T10:39:06.023Z,0.70
2018-03-17T10:41:34.325Z,0.70
2018-03-17T10:44:02.607Z,0.70
2018-03-17T10:46:30.930Z,0.70
2018-03-17T10:48:59.253Z,0.70
2018-03-17T10:51:28.314Z,0.70
2018-03-17T10:53:56.639Z,0.70
2018-03-17T10:56:24.947Z,0.70
2018-03-17T10:58:53.297Z,0.70
2018-03-17T11:01:21.579Z,0.70
2018-03-17T11:03:49.845Z,0.70
2018-03-17T11:06:18.154Z,0.70
2018-03-17T11:08:46.402Z,0.70
2018-03-17T11:11:14.733Z,0.70
2018-03-17T11:13:43.021Z,0.70
2018-03-17T11:16:11.278Z,0.70
2018-03-17T11:18:39.574Z,0.63
2018-03-17T11:21:07.912Z,0.70
2018-03-17T11:23:37.851Z,0.70
2018-03-17T11:26:06.156Z,0.70
2018-03-17T11:28:34.469Z,0.70
2018-03-17T11:31:02.756Z,0.70
2018-03-17T11:33:31.070Z,0.70
2018-03-17T11:35:59.356Z,0.70
2018-03-17T11:38:28.432Z,0.70
2018-03-17T11:40:56.747Z,0.70
2018-03-17T11:43:25.045Z,0.70
2018-03-17T11:45:53.345Z,0.70
2018-03-17T11:48:21.643Z,0.70
2018-03-17T11:50:49.924Z,0.70
2018-03-17T11:53:18.185Z,0.70
2018-03-17T11:55:46.489Z,0.70
2018-03-17T11:58:14.751Z,0.70
2018-03-17T12:00:43.025Z,0.70
2018-03-17T12:03:11.341Z,0.70
2018-03-17T12:05:40.389Z,0.70
2018-03-17T12:08:08.676Z,0.70
2018-03-17T12:10:36.959Z,0.70
2018-03-17T12:13:05.277Z,0.70
2018-03-17T12:15:33.572Z,0.70
2018-03-17T12:18:01.879Z,0.70
2018-03-17T12:20:30.174Z,0.70
2018-03-17T12:22:58.459Z,0.70
2018-03-17T12:25:26.709Z,0.70
2018-03-17T12:27:55.012Z,0.70
2018-03-17T12:30:24.219Z,0.70
2018-03-17T12:32:53.358Z,0.70
2018-03-17T12:35:21.664Z,0.70
2018-03-17T12:37:49.965Z,0.80
2018-03-17T12:40:21.617Z,0.70
2018-03-17T12:42:47.286Z,0.70
2018-03-17T12:45:15.540Z,0.70
2018-03-17T12:47:43.784Z,0.70
2018-03-17T12:50:12.896Z,0.70
2018-03-17T12:52:41.910Z,0.60
2018-03-17T12:55:10.209Z,0.70
2018-03-17T12:57:38.465Z,0.70
2018-03-17T13:00:06.785Z,0.70
2018-03-17T13:02:35.014Z,0.67
2018-03-17T13:05:03.254Z,0.70
2018-03-17T13:07:32.370Z,0.70
2018-03-17T13:10:01.431Z,0.70
2018-03-17T13:12:29.714Z,0.70
2018-03-17T13:14:57.996Z,0.70
2018-03-17T13:17:26.301Z,0.70
2018-03-17T13:19:54.600Z,0.70
2018-03-17T13:22:22.920Z,0.70
2018-03-17T13:24:51.160Z,0.70
2018-03-17T13:27:31.344Z,0.70
2018-03-17T13:29:59.615Z,0.70
2018-03-17T13:32:39.664Z,0.70
2018-03-17T13:35:07.980Z,0.70
2018-03-17T13:37:37.896Z,0.70
2018-03-17T13:40:18.953Z,0.70
2018-03-17T13:42:47.243Z,0.70
2018-03-17T13:45:16.288Z,0.70
2018-03-17T13:47:44.537Z,0.70
2018-03-17T13:50:12.829Z,0.70
2018-03-17T13:52:41.108Z,0.70
2018-03-17T13:55:09.509Z,0.70
2018-03-17T13:57:38.562Z,0.70
2018-03-17T14:00:06.867Z,0.70
2018-03-17T14:02:35.291Z,0.70
2018-03-17T14:05:03.641Z,0.70
2018-03-17T14:07:31.909Z,0.70
2018-03-17T14:10:00.152Z,0.70
2018-03-17T14:12:28.476Z,0.70
2018-03-17T14:14:56.750Z,0.70
2018-03-17T14:17:25.778Z,0.70
2018-03-17T14:19:54.832Z,0.70
2018-03-17T14:22:23.130Z,0.70
2018-03-17T14:24:51.403Z,0.70
2018-03-17T14:27:19.662Z,0.70
2018-03-17T14:29:47.978Z,0.70
2018-03-17T14:32:16.993Z,0.70
2018-03-17T14:34:45.315Z,0.70
2018-03-17T14:37:13.604Z,0.80
2018-03-17T14:39:42.819Z,0.70
2018-03-17T14:42:11.077Z,0.70
2018-03-17T14:44:39.376Z,0.70
2018-03-17T14:47:07.626Z,0.70
2018-03-17T14:49:35.866Z,0.70
2018-03-17T14:52:04.182Z,0.73
2018-03-17T14:54:32.417Z,0.70
2018-03-17T14:57:00.724Z,0.70
2018-03-17T14:59:28.986Z,0.70
2018-03-17T15:01:57.234Z,0.70
2018-03-17T15:04:25.513Z,0.70
2018-03-17T15:06:53.764Z,0.70
2018-03-17T15:09:22.852Z,0.70
2018-03-17T15:11:51.094Z,0.70
2018-03-17T15:14:19.718Z,0.70
2018-03-17T15:16:48.087Z,0.70
2018-03-17T15:19:16.336Z,0.80
2018-03-17T15:21:44.617Z,0.77
2018-03-17T15:24:12.880Z,0.80
2018-03-17T15:26:41.104Z,0.70
2018-03-17T15:29:10.168Z,0.70
2018-03-17T15:31:38.454Z,0.70
2018-03-17T15:34:06.771Z,0.70
2018-03-17T15:36:35.008Z,0.70
2018-03-17T15:39:03.330Z,0.70
2018-03-17T15:41:31.593Z,0.70
2018-03-17T15:44:00.678Z,0.70
2018-03-17T15:46:29.742Z,0.70
2018-03-17T15:48:58.001Z,0.70
2018-03-17T15:51:26.593Z,0.80
2018-03-17T15:53:54.888Z,0.70
2018-03-17T15:56:23.232Z,0.70
2018-03-17T15:58:51.501Z,0.70
2018-03-17T16:01:19.841Z,0.70
2018-03-17T16:03:48.132Z,0.70
2018-03-17T16:06:17.185Z,0.70
2018-03-17T16:08:45.449Z,0.70
2018-03-17T16:11:13.741Z,0.70
2018-03-17T16:13:42.931Z,0.80
2018-03-17T16:16:11.222Z,0.70
2018-03-17T16:18:39.529Z,0.70
2018-03-17T16:21:07.808Z,0.70
2018-03-17T16:23:36.854Z,0.70
2018-03-17T16:26:05.146Z,0.70
2018-03-17T16:28:33.421Z,0.73
2018-03-17T16:31:01.745Z,0.70
2018-03-17T16:33:30.014Z,0.80
2018-03-17T16:35:59.086Z,0.70
2018-03-17T16:38:27.383Z,0.80
2018-03-17T16:40:55.647Z,0.80
2018-03-17T16:43:24.735Z,0.80
2018-03-17T16:45:53.023Z,0.70
2018-03-17T16:48:22.105Z,0.80
2018-03-17T16:50:50.373Z,0.70
2018-03-17T16:53:18.644Z,0.70
2018-03-17T16:55:46.930Z,0.70
2018-03-17T16:58:15.220Z,0.80
2018-03-17T17:00:44.247Z,0.70
2018-03-17T17:03:12.636Z,0.70
2018-03-17T17:05:41.623Z,0.70
2018-03-17T17:08:09.872Z,0.70
2018-03-17T17:10:38.933Z,0.73
2018-03-17T17:13:07.239Z,0.70
2018-03-17T17:15:36.398Z,0.70
2018-03-17T17:18:05.411Z,0.70
2018-03-17T17:20:33.735Z,0.70
2018-03-17T17:23:02.090Z,0.80
2018-03-17T17:25:30.550Z,0.80
2018-03-17T17:27:58.863Z,0.77
2018-03-17T17:30:27.126Z,0.80
2018-03-17T17:32:56.182Z,0.80
2018-03-17T17:35:24.480Z,0.80
2018-03-17T17:37:52.806Z,0.80
2018-03-17T17:40:21.069Z,0.70
2018-03-17T17:42:50.108Z,0.70
2018-03-17T17:45:18.375Z,0.70
2018-03-17T17:47:46.616Z,0.70
2018-03-17T17:50:14.925Z,0.70
2018-03-17T17:52:43.189Z,0.80
2018-03-17T17:55:11.477Z,0.80
2018-03-17T17:57:39.765Z,0.70
2018-03-17T18:00:08.070Z,0.80
2018-03-17T18:02:36.388Z,0.80
2018-03-17T18:05:04.687Z,0.80
2018-03-17T18:07:32.980Z,0.80
2018-03-17T18:10:01.268Z,0.70
2018-03-17T18:12:29.553Z,0.80
2018-03-17T18:14:57.894Z,0.70
2018-03-17T18:17:26.186Z,0.80
2018-03-17T18:19:54.450Z,0.77
2018-03-17T18:22:22.759Z,0.70
2018-03-17T18:24:51.059Z,0.80
2018-03-17T18:27:20.123Z,0.80
2018-03-17T18:29:48.442Z,0.70
2018-03-17T18:32:16.738Z,0.80
2018-03-17T18:34:45.033Z,0.80
2018-03-17T18:37:13.303Z,0.80
2018-03-17T18:39:41.606Z,0.70
2018-03-17T18:42:09.897Z,0.80
2018-03-17T18:44:38.162Z,0.70
2018-03-17T18:47:06.470Z,0.77
2018-03-17T18:49:35.523Z,0.80
2018-03-17T18:52:03.848Z,0.70
2018-03-17T18:54:32.925Z,0.70
2018-03-17T18:57:01.981Z,0.70
2018-03-17T18:59:30.273Z,0.80
2018-03-17T19:01:58.554Z,0.70
2018-03-17T19:04:26.895Z,0.80
2018-03-17T19:06:55.212Z,0.70
2018-03-17T19:09:23.505Z,0.80
2018-03-17T19:11:51.822Z,0.80
2018-03-17T19:14:20.118Z,0.80
2018-03-17T19:16:48.455Z,0.80
2018-03-17T19:19:17.521Z,0.80
2018-03-17T19:21:47.390Z,0.70
2018-03-17T19:24:15.701Z,0.80
2018-03-17T19:26:43.956Z,0.80
2018-03-17T19:29:12.393Z,0.80
2018-03-17T19:31:40.708Z,0.80
2018-03-17T19:34:08.976Z,0.70
2018-03-17T19:36:37.288Z,0.73
2018-03-17T19:39:05.551Z,0.80
2018-03-17T19:41:33.876Z,0.80
2018-03-17T19:44:02.913Z,0.90
2018-03-17T19:46:31.209Z,0.70
2018-03-17T19:48:59.524Z,0.80
2018-03-17T19:51:28.553Z,0.80
2018-03-17T19:53:56.873Z,0.80
2018-03-17T19:56:25.150Z,0.80
2018-03-17T19:58:53.406Z,0.80
2018-03-17T20:01:21.680Z,0.80
2018-03-17T20:03:49.955Z,0.80
2018-03-17T20:06:18.211Z,0.80
2018-03-17T20:08:46.513Z,0.80
2018-03-17T20:11:14.865Z,0.80
2018-03-17T20:13:43.278Z,0.80
2018-03-17T20:16:11.596Z,0.70
2018-03-17T20:18:40.664Z,0.73
2018-03-17T20:21:08.930Z,0.80
2018-03-17T20:23:37.235Z,0.70
2018-03-17T20:26:06.324Z,0.80
2018-03-17T20:28:34.660Z,0.80
2018-03-17T20:31:02.978Z,0.80
2018-03-17T20:33:31.290Z,0.73
2018-03-17T20:35:59.576Z,0.80
2018-03-17T20:38:27.901Z,0.80
2018-03-17T20:40:56.139Z,0.80
2018-03-17T20:43:24.487Z,0.70
2018-03-17T20:45:53.503Z,0.70
2018-03-17T20:48:21.826Z,0.70
2018-03-17T20:50:50.139Z,0.80
2018-03-17T20:53:19.163Z,0.80
2018-03-17T20:55:47.489Z,0.80
2018-03-17T20:58:15.773Z,0.80
2018-03-17T21:00:44.837Z,0.80
2018-03-17T21:03:13.114Z,0.80
2018-03-17T21:05:41.457Z,0.80
2018-03-17T21:08:09.720Z,0.80
2018-03-17T21:10:38.026Z,0.80
2018-03-17T21:13:07.266Z,0.70
2018-03-17T21:15:35.534Z,0.80
2018-03-17T21:18:03.806Z,0.80
2018-03-17T21:20:32.097Z,0.77
2018-03-17T21:23:00.391Z,0.80
2018-03-17T21:25:29.419Z,0.80
2018-03-17T21:27:57.713Z,0.80
2018-03-17T21:30:26.171Z,0.80
2018-03-17T21:32:54.508Z,0.80
2018-03-17T21:35:22.821Z,0.80
2018-03-17T21:37:51.199Z,0.80
2018-03-17T21:40:19.511Z,0.80
2018-03-17T21:42:47.817Z,0.80
2018-03-17T21:45:16.110Z,0.80
2018-03-17T21:47:45.171Z,0.80
2018-03-17T21:50:13.451Z,0.80
2018-03-17T21:52:41.707Z,0.70
2018-03-17T21:55:10.059Z,0.80
2018-03-17T21:57:38.366Z,0.83
2018-03-17T22:00:06.637Z,1.53
2018-03-17T22:02:34.932Z,10.13
2018-03-17T22:05:03.205Z,0.70
2018-03-17T22:07:31.490Z,7.70
2018-03-17T22:09:59.746Z,0.70
2018-03-17T22:12:28.097Z,0.80
2018-03-17T22:14:56.373Z,0.70
2018-03-17T22:17:24.620Z,0.80
2018-03-17T22:19:52.920Z,0.70
2018-03-17T22:22:21.217Z,0.80
2018-03-17T22:24:49.520Z,0.80
2018-03-17T22:27:17.798Z,0.80
2018-03-17T22:29:46.066Z,0.80
2018-03-17T22:32:14.351Z,0.80
2018-03-17T22:34:42.640Z,0.70
2018-03-17T22:37:11.706Z,0.80
2018-03-17T22:39:39.967Z,0.80
2018-03-17T22:42:08.254Z,0.73
2018-03-17T22:44:36.547Z,0.80
2018-03-17T22:47:04.869Z,0.80
2018-03-17T22:49:33.961Z,0.70
2018-03-17T22:52:02.989Z,0.80
2018-03-17T22:54:31.239Z,0.80
2018-03-17T22:56:59.513Z,0.83
2018-03-17T22:59:27.842Z,0.80
2018-03-17T23:01:56.088Z,0.80
2018-03-17T23:04:24.351Z,0.80
2018-03-17T23:06:52.651Z,0.80
2018-03-17T23:09:20.949Z,0.80
2018-03-17T23:11:49.210Z,0.80
2018-03-17T23:14:17.471Z,0.80
2018-03-17T23:16:45.764Z,0.80
2018-03-17T23:19:14.005Z,0.70
2018-03-17T23:21:42.325Z,0.80
2018-03-17T23:24:10.597Z,0.70
2018-03-17T23:26:38.857Z,0.80
2018-03-17T23:29:07.138Z,0.70
2018-03-17T23:31:35.390Z,0.80
2018-03-17T23:34:03.694Z,0.80
2018-03-17T23:36:31.985Z,0.80
2018-03-17T23:39:00.252Z,0.80
2018-03-17T23:41:28.541Z,0.80
2018-03-17T23:43:56.859Z,0.70
2018-03-17T23:46:25.915Z,0.80
2018-03-17T23:48:54.213Z,0.80
2018-03-17T23:51:22.494Z,0.70
2018-03-17T23:53:50.884Z,0.80
2018-03-17T23:56:19.980Z,0.70
2018-03-17T23:58:48.392Z,0.80
